createdAt,value
2019-04-01T00:00:16.921Z,22.60
2019-04-01T00:01:16.926Z,22.54
2019-04-01T00:02:16.932Z,22.57
2019-04-01T00:03:16.926Z,22.51
2019-04-01T00:04:16.916Z,22.55
2019-04-01T00:05:16.907Z,22.57
2019-04-01T00:06:16.883Z,22.58
2019-04-01T00:07:16.902Z,22.55
2019-04-01T00:08:16.891Z,22.58
2019-04-01T00:09:16.886Z,22.52
2019-04-01T00:10:16.907Z,22.58
2019-04-01T00:11:16.872Z,22.51
2019-04-01T00:12:16.869Z,22.57
2019-04-01T00:13:16.869Z,22.49
2019-04-01T00:14:16.857Z,22.52
2019-04-01T00:15:16.842Z,22.54
2019-04-01T00:16:16.835Z,22.54
2019-04-01T00:17:16.822Z,22.54
2019-04-01T00:18:16.827Z,22.46
2019-04-01T00:19:16.813Z,22.55
2019-04-01T00:20:16.809Z,22.46
2019-04-01T00:21:17.805Z,22.49
2019-04-01T00:22:16.821Z,22.45
2019-04-01T00:23:16.801Z,22.52
2019-04-01T00:24:16.816Z,22.47
2019-04-01T00:25:16.804Z,22.58
2019-04-01T00:26:16.790Z,22.39
2019-04-01T00:27:16.781Z,22.51
2019-04-01T00:28:16.779Z,22.54
2019-04-01T00:29:16.804Z,22.54
2019-04-01T00:30:16.765Z,22.46
2019-04-01T00:31:16.771Z,22.64
2019-04-01T00:32:16.741Z,22.51
2019-04-01T00:33:16.736Z,22.46
2019-04-01T00:34:16.735Z,22.45
2019-04-01T00:35:16.756Z,22.52
2019-04-01T00:36:16.711Z,22.42
2019-04-01T00:37:16.743Z,22.45
2019-04-01T00:38:16.695Z,22.51
2019-04-01T00:39:16.689Z,22.60
2019-04-01T00:40:16.710Z,22.40
2019-04-01T00:41:16.716Z,22.49
2019-04-01T00:42:16.685Z,22.58
2019-04-01T00:43:16.681Z,22.45
2019-04-01T00:44:16.683Z,22.47
2019-04-01T00:45:16.698Z,22.47
2019-04-01T00:46:16.683Z,22.49
2019-04-01T00:47:16.674Z,22.47
2019-04-01T00:48:16.679Z,22.46
2019-04-01T00:49:16.655Z,22.42
2019-04-01T00:50:16.648Z,22.42
2019-04-01T00:51:16.654Z,22.47
2019-04-01T00:52:16.628Z,22.43
2019-04-01T00:53:18.069Z,22.54
2019-04-01T00:54:17.640Z,22.39
2019-04-01T00:55:16.633Z,22.51
2019-04-01T00:56:16.657Z,22.51
2019-04-01T00:57:16.616Z,22.42
2019-04-01T00:58:16.612Z,22.52
2019-04-01T00:59:16.609Z,22.43
2019-04-01T01:00:16.610Z,22.45
2019-04-01T01:01:16.598Z,22.46
2019-04-01T01:02:16.570Z,22.40
2019-04-01T01:03:16.594Z,22.42
2019-04-01T01:04:16.575Z,22.42
2019-04-01T01:05:16.546Z,22.45
2019-04-01T01:06:16.551Z,22.45
2019-04-01T01:07:16.562Z,22.40
2019-04-01T01:08:16.529Z,22.37
2019-04-01T01:09:16.522Z,22.42
2019-04-01T01:10:16.518Z,22.39
2019-04-01T01:11:16.519Z,22.36
2019-04-01T01:12:16.505Z,22.35
2019-04-01T01:13:16.487Z,22.46
2019-04-01T01:14:16.483Z,22.43
2019-04-01T01:15:16.474Z,22.36
2019-04-01T01:16:16.471Z,22.43
2019-04-01T01:17:16.476Z,22.42
2019-04-01T01:18:16.459Z,22.40
2019-04-01T01:19:16.463Z,22.40
2019-04-01T01:20:16.444Z,22.42
2019-04-01T01:21:16.442Z,22.40
2019-04-01T01:22:16.521Z,22.40
2019-04-01T01:23:16.426Z,22.42
2019-04-01T01:24:16.424Z,22.42
2019-04-01T01:25:16.415Z,22.30
2019-04-01T01:26:16.403Z,22.40
2019-04-01T01:27:16.391Z,22.42
2019-04-01T01:28:16.413Z,22.39
2019-04-01T01:29:16.398Z,22.39
2019-04-01T01:30:16.407Z,22.49
2019-04-01T01:31:16.394Z,22.27
2019-04-01T01:32:16.381Z,22.35
2019-04-01T01:33:16.404Z,22.33
2019-04-01T01:34:16.359Z,22.30
2019-04-01T01:35:16.353Z,22.31
2019-04-01T01:36:16.346Z,22.43
2019-04-01T01:37:16.347Z,22.35
2019-04-01T01:38:16.354Z,22.39
2019-04-01T01:39:16.329Z,22.36
2019-04-01T01:40:16.325Z,22.37
2019-04-01T01:41:16.320Z,22.36
2019-04-01T01:42:16.332Z,22.37
2019-04-01T01:43:16.317Z,22.35
2019-04-01T01:44:16.329Z,22.30
2019-04-01T01:45:16.289Z,22.28
2019-04-01T01:46:16.298Z,22.37
2019-04-01T01:47:16.271Z,22.31
2019-04-01T01:48:16.263Z,22.36
2019-04-01T01:49:16.272Z,22.33
2019-04-01T01:50:16.259Z,22.39
2019-04-01T01:51:16.247Z,22.37
2019-04-01T01:52:16.229Z,22.46
2019-04-01T01:53:16.241Z,22.33
2019-04-01T01:54:16.381Z,22.31
2019-04-01T01:55:16.209Z,22.36
2019-04-01T01:56:16.208Z,22.35
2019-04-01T01:57:16.199Z,22.33
2019-04-01T01:58:16.205Z,22.40
2019-04-01T01:59:16.174Z,22.24
2019-04-01T02:00:16.176Z,22.37
2019-04-01T02:01:16.165Z,22.30
2019-04-01T02:02:16.151Z,22.33
2019-04-01T02:03:16.141Z,22.33
2019-04-01T02:04:16.171Z,22.27
2019-04-01T02:05:16.137Z,22.31
2019-04-01T02:06:16.120Z,22.24
2019-04-01T02:07:16.120Z,22.28
2019-04-01T02:08:16.103Z,22.33
2019-04-01T02:09:16.098Z,22.30
2019-04-01T02:10:16.112Z,22.25
2019-04-01T02:11:16.079Z,22.37
2019-04-01T02:12:16.080Z,22.31
2019-04-01T02:13:16.071Z,22.31
2019-04-01T02:14:16.067Z,22.36
2019-04-01T02:15:16.074Z,22.35
2019-04-01T02:16:16.051Z,22.31
2019-04-01T02:17:16.065Z,22.28
2019-04-01T02:18:16.043Z,22.24
2019-04-01T02:19:16.037Z,22.22
2019-04-01T02:20:16.028Z,22.31
2019-04-01T02:21:16.049Z,22.30
2019-04-01T02:22:16.025Z,22.33
2019-04-01T02:23:16.006Z,22.27
2019-04-01T02:24:16.001Z,22.25
2019-04-01T02:25:16.001Z,22.28
2019-04-01T02:26:15.997Z,22.27
2019-04-01T02:27:16.022Z,22.24
2019-04-01T02:28:15.990Z,22.24
2019-04-01T02:29:15.985Z,22.21
2019-04-01T02:30:15.976Z,22.28
2019-04-01T02:31:16.068Z,22.22
2019-04-01T02:32:15.989Z,22.21
2019-04-01T02:33:15.967Z,22.25
2019-04-01T02:34:15.955Z,22.25
2019-04-01T02:35:15.939Z,22.27
2019-04-01T02:36:15.929Z,22.22
2019-04-01T02:37:15.934Z,22.21
2019-04-01T02:38:15.918Z,22.24
2019-04-01T02:39:15.997Z,22.22
2019-04-01T02:40:15.904Z,22.21
2019-04-01T02:41:15.897Z,22.21
2019-04-01T02:42:15.889Z,22.21
2019-04-01T02:43:15.924Z,22.27
2019-04-01T02:44:15.901Z,22.24
2019-04-01T02:45:15.887Z,22.21
2019-04-01T02:46:15.889Z,22.22
2019-04-01T02:47:15.881Z,22.24
2019-04-01T02:48:15.880Z,22.17
2019-04-01T02:49:15.888Z,22.24
2019-04-01T02:50:15.872Z,22.22
2019-04-01T02:51:15.845Z,22.20
2019-04-01T02:52:15.829Z,22.22
2019-04-01T02:53:15.840Z,22.25
2019-04-01T02:54:15.880Z,22.24
2019-04-01T02:55:15.815Z,22.22
2019-04-01T02:56:15.804Z,22.25
2019-04-01T02:57:15.792Z,22.24
2019-04-01T02:58:15.803Z,22.15
2019-04-01T02:59:15.819Z,22.21
2019-04-01T03:00:15.793Z,22.18
2019-04-01T03:01:15.772Z,22.21
2019-04-01T03:02:15.773Z,22.22
2019-04-01T03:03:15.766Z,22.15
2019-04-01T03:04:15.760Z,22.22
2019-04-01T03:05:15.753Z,22.25
2019-04-01T03:06:15.756Z,22.28
2019-04-01T03:07:15.766Z,22.22
2019-04-01T03:08:15.734Z,22.21
2019-04-01T03:09:15.736Z,22.24
2019-04-01T03:10:15.725Z,22.22
2019-04-01T03:11:15.701Z,22.18
2019-04-01T03:12:15.699Z,22.24
2019-04-01T03:13:15.702Z,22.24
2019-04-01T03:14:15.679Z,22.21
2019-04-01T03:15:15.709Z,22.12
2019-04-01T03:16:15.664Z,22.15
2019-04-01T03:17:15.670Z,22.15
2019-04-01T03:18:15.645Z,22.24
2019-04-01T03:19:15.653Z,22.28
2019-04-01T03:20:15.635Z,22.27
2019-04-01T03:21:15.621Z,22.24
2019-04-01T03:22:15.620Z,22.28
2019-04-01T03:23:15.610Z,22.25
2019-04-01T03:24:15.601Z,22.28
2019-04-01T03:25:15.603Z,22.27
2019-04-01T03:26:16.591Z,22.31
2019-04-01T03:27:17.418Z,22.40
2019-04-01T03:28:16.567Z,22.36
2019-04-01T03:29:15.575Z,22.40
2019-04-01T03:30:15.563Z,22.40
2019-04-01T03:31:15.553Z,22.55
2019-04-01T03:32:15.535Z,22.45
2019-04-01T03:33:15.554Z,22.51
2019-04-01T03:34:15.554Z,22.58
2019-04-01T03:35:15.599Z,22.52
2019-04-01T03:36:15.523Z,22.61
2019-04-01T03:37:15.505Z,22.58
2019-04-01T03:38:15.494Z,22.64
2019-04-01T03:39:15.481Z,22.70
2019-04-01T03:40:15.491Z,22.68
2019-04-01T03:41:15.492Z,22.82
2019-04-01T03:42:15.477Z,22.79
2019-04-01T03:43:15.472Z,22.88
2019-04-01T03:44:15.470Z,22.83
2019-04-01T03:45:15.462Z,22.88
2019-04-01T03:46:15.456Z,22.90
2019-04-01T03:47:15.449Z,22.95
2019-04-01T03:48:15.439Z,22.92
2019-04-01T03:49:15.438Z,23.02
2019-04-01T03:50:15.425Z,22.97
2019-04-01T03:51:15.418Z,22.91
2019-04-01T03:52:15.404Z,23.07
2019-04-01T03:53:15.391Z,23.07
2019-04-01T03:54:15.387Z,23.10
2019-04-01T03:55:15.397Z,23.17
2019-04-01T03:56:15.374Z,23.16
2019-04-01T03:57:15.379Z,22.98
2019-04-01T03:58:15.378Z,23.16
2019-04-01T03:59:15.365Z,23.10
2019-04-01T04:00:15.363Z,23.10
2019-04-01T04:01:15.350Z,23.12
2019-04-01T04:02:15.370Z,23.05
2019-04-01T04:03:15.336Z,23.13
2019-04-01T04:04:15.333Z,23.12
2019-04-01T04:05:15.325Z,23.13
2019-04-01T04:06:15.335Z,23.02
2019-04-01T04:07:15.326Z,23.13
2019-04-01T04:08:15.339Z,23.17
2019-04-01T04:09:15.304Z,23.04
2019-04-01T04:10:15.309Z,22.98
2019-04-01T04:11:15.312Z,23.10
2019-04-01T04:12:15.322Z,23.12
2019-04-01T04:13:15.323Z,23.09
2019-04-01T04:14:15.286Z,23.04
2019-04-01T04:15:15.297Z,23.01
2019-04-01T04:16:15.281Z,22.94
2019-04-01T04:17:15.255Z,22.98
2019-04-01T04:18:15.257Z,22.97
2019-04-01T04:19:15.429Z,22.80
2019-04-01T04:20:15.244Z,22.85
2019-04-01T04:21:15.258Z,22.73
2019-04-01T04:22:15.265Z,22.70
2019-04-01T04:23:15.258Z,22.73
2019-04-01T04:24:15.254Z,22.70
2019-04-01T04:25:15.390Z,22.57
2019-04-01T04:26:15.244Z,22.60
2019-04-01T04:27:15.232Z,22.55
2019-04-01T04:28:15.324Z,22.54
2019-04-01T04:29:15.229Z,22.52
2019-04-01T04:30:15.220Z,22.54
2019-04-01T04:31:15.210Z,22.40
2019-04-01T04:32:15.188Z,22.40
2019-04-01T04:33:15.179Z,22.42
2019-04-01T04:34:15.171Z,22.42
2019-04-01T04:35:15.177Z,22.46
2019-04-01T04:36:15.160Z,22.46
2019-04-01T04:37:15.152Z,22.43
2019-04-01T04:38:15.146Z,22.43
2019-04-01T04:39:15.146Z,22.45
2019-04-01T04:40:15.138Z,22.40
2019-04-01T04:41:15.122Z,22.40
2019-04-01T04:42:15.124Z,22.47
2019-04-01T04:43:15.118Z,22.45
2019-04-01T04:44:15.110Z,22.45
2019-04-01T04:45:15.092Z,22.51
2019-04-01T04:46:15.111Z,22.57
2019-04-01T04:47:15.088Z,22.60
2019-04-01T04:48:15.097Z,22.58
2019-04-01T04:49:15.080Z,22.57
2019-04-01T04:50:15.104Z,22.68
2019-04-01T04:51:15.087Z,22.67
2019-04-01T04:52:15.104Z,22.76
2019-04-01T04:53:15.080Z,22.75
2019-04-01T04:54:15.081Z,22.75
2019-04-01T04:55:15.072Z,22.72
2019-04-01T04:56:15.079Z,22.76
2019-04-01T04:57:15.048Z,22.79
2019-04-01T04:58:15.058Z,22.79
2019-04-01T04:59:15.037Z,22.75
2019-04-01T05:00:15.029Z,22.83
2019-04-01T05:01:15.015Z,22.80
2019-04-01T05:02:15.035Z,22.83
2019-04-01T05:03:15.014Z,22.83
2019-04-01T05:04:15.007Z,22.86
2019-04-01T05:05:15.001Z,22.88
2019-04-01T05:06:15.005Z,22.91
2019-04-01T05:07:14.980Z,22.90
2019-04-01T05:08:15.004Z,22.90
2019-04-01T05:09:14.992Z,22.98
2019-04-01T05:10:14.991Z,22.88
2019-04-01T05:11:14.981Z,22.97
2019-04-01T05:12:14.974Z,22.92
2019-04-01T05:13:14.970Z,22.92
2019-04-01T05:14:14.955Z,22.92
2019-04-01T05:15:14.944Z,23.02
2019-04-01T05:16:14.935Z,23.00
2019-04-01T05:17:14.923Z,23.00
2019-04-01T05:18:14.923Z,22.98
2019-04-01T05:19:14.915Z,22.92
2019-04-01T05:20:16.529Z,23.01
2019-04-01T05:21:15.891Z,22.95
2019-04-01T05:22:14.910Z,23.05
2019-04-01T05:23:14.887Z,23.05
2019-04-01T05:24:14.877Z,23.02
2019-04-01T05:25:14.868Z,23.01
2019-04-01T05:26:14.857Z,22.98
2019-04-01T05:27:14.851Z,23.02
2019-04-01T05:28:14.852Z,23.02
2019-04-01T05:29:14.837Z,23.12
2019-04-01T05:30:14.820Z,23.10
2019-04-01T05:31:14.885Z,23.04
2019-04-01T05:32:14.830Z,23.04
2019-04-01T05:33:14.834Z,23.05
2019-04-01T05:34:14.849Z,23.04
2019-04-01T05:35:14.840Z,23.17
2019-04-01T05:36:14.847Z,23.01
2019-04-01T05:37:14.832Z,23.15
2019-04-01T05:38:14.825Z,23.02
2019-04-01T05:39:14.816Z,23.13
2019-04-01T05:40:14.800Z,23.09
2019-04-01T05:41:14.808Z,23.04
2019-04-01T05:42:14.806Z,23.02
2019-04-01T05:43:14.791Z,23.07
2019-04-01T05:44:14.791Z,23.09
2019-04-01T05:45:14.772Z,23.20
2019-04-01T05:46:14.768Z,23.19
2019-04-01T05:47:14.771Z,23.17
2019-04-01T05:48:14.748Z,23.15
2019-04-01T05:49:14.741Z,23.19
2019-04-01T05:50:14.739Z,23.28
2019-04-01T05:51:14.734Z,23.27
2019-04-01T05:52:14.724Z,23.25
2019-04-01T05:53:14.715Z,23.25
2019-04-01T05:54:14.700Z,23.35
2019-04-01T05:55:14.707Z,23.36
2019-04-01T05:56:14.702Z,23.35
2019-04-01T05:57:14.693Z,23.32
2019-04-01T05:58:14.688Z,23.31
2019-04-01T05:59:14.671Z,23.42
2019-04-01T06:00:14.667Z,23.31
2019-04-01T06:01:14.667Z,23.33
2019-04-01T06:02:14.667Z,23.33
2019-04-01T06:03:14.651Z,23.33
2019-04-01T06:04:14.647Z,23.48
2019-04-01T06:05:14.634Z,23.46
2019-04-01T06:06:14.622Z,23.55
2019-04-01T06:07:14.625Z,23.51
2019-04-01T06:08:14.641Z,23.60
2019-04-01T06:09:14.615Z,23.57
2019-04-01T06:10:14.602Z,23.58
2019-04-01T06:11:14.604Z,23.55
2019-04-01T06:12:14.588Z,23.68
2019-04-01T06:13:14.573Z,23.68
2019-04-01T06:14:14.565Z,23.61
2019-04-01T06:15:14.566Z,23.57
2019-04-01T06:16:14.554Z,23.63
2019-04-01T06:17:14.542Z,23.60
2019-04-01T06:18:14.544Z,23.65
2019-04-01T06:19:14.531Z,23.65
2019-04-01T06:20:14.524Z,23.69
2019-04-01T06:21:15.141Z,23.68
2019-04-01T06:22:14.526Z,23.69
2019-04-01T06:23:14.498Z,23.65
2019-04-01T06:24:14.497Z,23.73
2019-04-01T06:25:14.481Z,23.72
2019-04-01T06:26:14.476Z,23.76
2019-04-01T06:27:14.744Z,23.75
2019-04-01T06:28:14.484Z,23.76
2019-04-01T06:29:14.477Z,23.75
2019-04-01T06:30:14.469Z,23.80
2019-04-01T06:31:14.456Z,23.78
2019-04-01T06:32:14.473Z,23.85
2019-04-01T06:33:14.443Z,23.70
2019-04-01T06:34:14.442Z,23.78
2019-04-01T06:35:14.431Z,23.87
2019-04-01T06:36:14.434Z,23.73
2019-04-01T06:37:14.521Z,23.91
2019-04-01T06:38:14.429Z,23.91
2019-04-01T06:39:14.404Z,23.90
2019-04-01T06:40:15.437Z,23.94
2019-04-01T06:41:14.407Z,23.95
2019-04-01T06:42:14.417Z,23.98
2019-04-01T06:43:14.393Z,24.03
2019-04-01T06:44:14.410Z,23.98
2019-04-01T06:45:14.415Z,24.08
2019-04-01T06:46:14.404Z,24.08
2019-04-01T06:47:14.387Z,24.08
2019-04-01T06:48:14.378Z,24.18
2019-04-01T06:49:14.376Z,24.15
2019-04-01T06:50:14.371Z,24.13
2019-04-01T06:51:14.363Z,24.31
2019-04-01T06:52:14.344Z,24.18
2019-04-01T06:53:14.347Z,24.13
2019-04-01T06:54:14.330Z,24.18
2019-04-01T06:55:14.315Z,24.20
2019-04-01T06:56:14.324Z,24.25
2019-04-01T06:57:14.335Z,24.35
2019-04-01T06:58:14.300Z,24.31
2019-04-01T06:59:14.289Z,24.39
2019-04-01T07:00:14.287Z,24.34
2019-04-01T07:01:14.339Z,24.32
2019-04-01T07:02:14.299Z,24.42
2019-04-01T07:03:14.286Z,24.39
2019-04-01T07:04:14.287Z,24.43
2019-04-01T07:05:14.267Z,24.42
2019-04-01T07:06:14.281Z,24.46
2019-04-01T07:07:19.292Z,24.53
2019-04-01T07:08:16.254Z,24.45
2019-04-01T07:09:14.274Z,24.50
2019-04-01T07:10:14.264Z,24.53
2019-04-01T07:11:14.268Z,24.55
2019-04-01T07:12:14.270Z,24.50
2019-04-01T07:13:14.307Z,24.60
2019-04-01T07:14:14.240Z,24.62
2019-04-01T07:15:14.227Z,24.64
2019-04-01T07:16:15.938Z,24.65
2019-04-01T07:17:15.215Z,24.62
2019-04-01T07:18:14.208Z,24.57
2019-04-01T07:19:14.209Z,24.60
2019-04-01T07:20:14.190Z,24.65
2019-04-01T07:21:14.171Z,24.73
2019-04-01T07:22:14.168Z,24.67
2019-04-01T07:23:14.216Z,24.73
2019-04-01T07:24:14.159Z,24.73
2019-04-01T07:25:14.148Z,24.81
2019-04-01T07:26:14.148Z,24.80
2019-04-01T07:27:14.135Z,24.84
2019-04-01T07:28:14.136Z,24.87
2019-04-01T07:29:14.112Z,24.87
2019-04-01T07:30:14.107Z,24.78
2019-04-01T07:31:14.094Z,24.90
2019-04-01T07:32:14.714Z,24.95
2019-04-01T07:33:15.104Z,24.93
2019-04-01T07:34:14.088Z,24.95
2019-04-01T07:35:14.072Z,25.03
2019-04-01T07:36:14.062Z,24.96
2019-04-01T07:37:14.099Z,25.00
2019-04-01T07:38:14.041Z,24.96
2019-04-01T07:39:14.045Z,24.99
2019-04-01T07:40:14.234Z,25.06
2019-04-01T07:41:14.029Z,25.00
2019-04-01T07:42:14.046Z,25.13
2019-04-01T07:43:15.160Z,25.09
2019-04-01T07:44:15.011Z,25.14
2019-04-01T07:45:14.021Z,25.18
2019-04-01T07:46:14.005Z,25.23
2019-04-01T07:47:13.988Z,25.23
2019-04-01T07:48:13.990Z,25.28
2019-04-01T07:49:14.025Z,25.23
2019-04-01T07:50:13.981Z,25.35
2019-04-01T07:51:13.965Z,25.30
2019-04-01T07:52:13.951Z,25.36
2019-04-01T07:53:13.952Z,25.35
2019-04-01T07:54:13.948Z,25.30
2019-04-01T07:55:14.016Z,25.45
2019-04-01T07:56:13.919Z,25.46
2019-04-01T07:57:13.924Z,25.60
2019-04-01T07:58:14.914Z,25.54
2019-04-01T07:59:13.924Z,25.54
2019-04-01T08:00:13.912Z,25.58
2019-04-01T08:01:13.888Z,25.67
2019-04-01T08:02:13.897Z,25.62
2019-04-01T08:03:13.916Z,25.60
2019-04-01T08:04:13.976Z,25.75
2019-04-01T08:05:13.876Z,25.67
2019-04-01T08:06:13.901Z,25.80
2019-04-01T08:07:13.874Z,25.77
2019-04-01T08:08:13.851Z,25.80
2019-04-01T08:09:13.856Z,25.83
2019-04-01T08:10:13.844Z,25.80
2019-04-01T08:11:13.864Z,26.01
2019-04-01T08:12:13.850Z,26.01
2019-04-01T08:13:13.830Z,26.21
2019-04-01T08:14:13.828Z,26.17
2019-04-01T08:15:13.825Z,26.15
2019-04-01T08:16:13.909Z,26.15
2019-04-01T08:17:13.819Z,26.17
2019-04-01T08:18:13.841Z,26.32
2019-04-01T08:19:13.823Z,26.25
2019-04-01T08:20:13.841Z,26.44
2019-04-01T08:21:13.787Z,26.60
2019-04-01T08:22:13.788Z,26.65
2019-04-01T08:23:13.781Z,26.66
2019-04-01T08:24:13.781Z,26.67
2019-04-01T08:25:13.770Z,26.85
2019-04-01T08:26:13.786Z,26.91
2019-04-01T08:27:13.785Z,27.18
2019-04-01T08:28:13.762Z,27.19
2019-04-01T08:29:13.755Z,27.41
2019-04-01T08:30:13.741Z,27.51
2019-04-01T08:31:13.757Z,27.62
2019-04-01T08:32:14.188Z,27.88
2019-04-01T08:33:14.725Z,27.94
2019-04-01T08:34:13.733Z,28.14
2019-04-01T08:35:13.739Z,28.37
2019-04-01T08:36:13.743Z,28.59
2019-04-01T08:37:13.725Z,28.83
2019-04-01T08:38:13.749Z,29.09
2019-04-01T08:39:13.725Z,29.37
2019-04-01T08:40:13.702Z,29.55
2019-04-01T08:41:13.695Z,29.78
2019-04-01T08:42:13.691Z,30.02
2019-04-01T08:43:13.789Z,30.24
2019-04-01T08:44:13.673Z,30.46
2019-04-01T08:45:13.671Z,30.62
2019-04-01T08:46:13.664Z,30.99
2019-04-01T08:47:13.657Z,31.09
2019-04-01T08:48:13.674Z,31.36
2019-04-01T08:49:13.637Z,31.62
2019-04-01T08:50:13.630Z,31.80
2019-04-01T08:51:13.674Z,31.93
2019-04-01T08:52:13.610Z,32.13
2019-04-01T08:53:13.602Z,32.40
2019-04-01T08:54:13.613Z,32.56
2019-04-01T08:55:13.588Z,32.74
2019-04-01T08:56:13.592Z,32.92
2019-04-01T08:57:13.570Z,33.07
2019-04-01T08:58:13.687Z,33.21
2019-04-01T08:59:13.651Z,33.35
2019-04-01T09:00:13.565Z,33.53
2019-04-01T09:01:13.570Z,33.54
2019-04-01T09:02:18.297Z,33.81
2019-04-01T09:03:15.524Z,33.90
2019-04-01T09:04:13.566Z,34.00
2019-04-01T09:05:13.519Z,34.31
2019-04-01T09:06:13.625Z,34.47
2019-04-01T09:07:13.614Z,34.58
2019-04-01T09:08:13.510Z,34.66
2019-04-01T09:09:13.514Z,34.84
2019-04-01T09:10:13.475Z,34.99
2019-04-01T09:11:13.480Z,35.10
2019-04-01T09:12:13.475Z,35.26
2019-04-01T09:13:13.448Z,35.34
2019-04-01T09:14:13.442Z,35.47
2019-04-01T09:15:13.462Z,35.52
2019-04-01T09:16:13.425Z,35.60
2019-04-01T09:17:13.433Z,35.72
2019-04-01T09:18:13.503Z,35.84
2019-04-01T09:19:13.424Z,35.99
2019-04-01T09:20:13.507Z,36.13
2019-04-01T09:21:13.404Z,36.17
2019-04-01T09:22:13.390Z,36.22
2019-04-01T09:23:13.379Z,36.20
2019-04-01T09:24:13.389Z,36.38
2019-04-01T09:25:13.370Z,36.62
2019-04-01T09:26:13.365Z,36.64
2019-04-01T09:27:13.354Z,36.78
2019-04-01T09:28:13.354Z,36.85
2019-04-01T09:29:13.351Z,36.94
2019-04-01T09:30:13.357Z,37.10
2019-04-01T09:31:13.444Z,37.25
2019-04-01T09:32:13.317Z,37.29
2019-04-01T09:33:13.301Z,37.39
2019-04-01T09:34:13.330Z,37.47
2019-04-01T09:35:13.319Z,37.60
2019-04-01T09:36:13.297Z,37.49
2019-04-01T09:37:13.284Z,37.56
2019-04-01T09:38:13.296Z,37.49
2019-04-01T09:39:13.289Z,37.62
2019-04-01T09:40:13.271Z,37.57
2019-04-01T09:41:13.765Z,37.49
2019-04-01T09:42:14.270Z,37.40
2019-04-01T09:43:14.273Z,37.31
2019-04-01T09:44:14.250Z,37.17
2019-04-01T09:45:13.238Z,36.98
2019-04-01T09:46:13.264Z,36.83
2019-04-01T09:47:13.248Z,36.71
2019-04-01T09:48:13.212Z,36.56
2019-04-01T09:49:13.206Z,36.22
2019-04-01T09:50:13.260Z,36.07
2019-04-01T09:51:13.226Z,35.81
2019-04-01T09:52:13.306Z,35.38
2019-04-01T09:53:13.177Z,35.16
2019-04-01T09:54:13.224Z,34.99
2019-04-01T09:55:13.162Z,34.62
2019-04-01T09:56:13.155Z,34.42
2019-04-01T09:57:17.906Z,34.31
2019-04-01T09:58:14.196Z,33.97
2019-04-01T09:59:13.186Z,33.82
2019-04-01T10:00:13.119Z,33.63
2019-04-01T10:01:13.113Z,33.45
2019-04-01T10:02:13.106Z,33.22
2019-04-01T10:03:13.256Z,33.09
2019-04-01T10:04:13.101Z,32.89
2019-04-01T10:05:13.086Z,32.77
2019-04-01T10:06:13.065Z,32.48
2019-04-01T10:07:13.073Z,32.41
2019-04-01T10:08:13.087Z,32.26
2019-04-01T10:09:13.050Z,32.25
2019-04-01T10:10:13.035Z,32.14
2019-04-01T10:11:13.179Z,32.07
2019-04-01T10:12:13.254Z,32.13
2019-04-01T10:13:13.039Z,32.11
2019-04-01T10:14:13.014Z,32.22
2019-04-01T10:15:13.015Z,32.37
2019-04-01T10:16:13.004Z,32.37
2019-04-01T10:17:13.076Z,32.59
2019-04-01T10:18:13.035Z,32.75
2019-04-01T10:19:13.066Z,32.88
2019-04-01T10:20:12.964Z,33.12
2019-04-01T10:21:13.139Z,33.35
2019-04-01T10:22:12.959Z,33.53
2019-04-01T10:23:12.942Z,33.91
2019-04-01T10:24:13.113Z,34.02
2019-04-01T10:25:12.933Z,34.30
2019-04-01T10:26:12.926Z,34.54
2019-04-01T10:27:12.914Z,34.70
2019-04-01T10:28:12.905Z,34.97
2019-04-01T10:29:12.919Z,35.11
2019-04-01T10:30:12.896Z,35.34
2019-04-01T10:31:12.887Z,35.56
2019-04-01T10:32:12.944Z,35.65
2019-04-01T10:33:12.877Z,35.82
2019-04-01T10:34:12.859Z,35.94
2019-04-01T10:35:12.946Z,36.12
2019-04-01T10:36:12.846Z,36.16
2019-04-01T10:37:12.844Z,36.23
2019-04-01T10:38:12.829Z,36.43
2019-04-01T10:39:12.834Z,36.49
2019-04-01T10:40:13.168Z,36.56
2019-04-01T10:41:12.842Z,36.62
2019-04-01T10:42:12.829Z,36.59
2019-04-01T10:43:12.799Z,36.66
2019-04-01T10:44:12.793Z,36.72
2019-04-01T10:45:12.789Z,36.69
2019-04-01T10:46:12.799Z,36.72
2019-04-01T10:47:13.020Z,36.64
2019-04-01T10:48:12.766Z,36.66
2019-04-01T10:49:13.777Z,36.64
2019-04-01T10:50:12.811Z,36.49
2019-04-01T10:51:12.755Z,36.50
2019-04-01T10:52:12.764Z,36.39
2019-04-01T10:53:12.758Z,36.34
2019-04-01T10:54:12.791Z,36.17
2019-04-01T10:55:12.766Z,36.20
2019-04-01T10:56:12.795Z,36.12
2019-04-01T10:57:12.754Z,36.08
2019-04-01T10:58:12.752Z,35.97
2019-04-01T10:59:12.755Z,35.82
2019-04-01T11:00:12.701Z,35.75
2019-04-01T11:01:12.686Z,35.47
2019-04-01T11:02:12.684Z,35.21
2019-04-01T11:03:12.751Z,34.82
2019-04-01T11:04:12.654Z,34.35
2019-04-01T11:05:12.703Z,33.95
2019-04-01T11:06:12.666Z,33.49
2019-04-01T11:07:12.889Z,33.04
2019-04-01T11:08:12.704Z,32.74
2019-04-01T11:09:12.643Z,32.35
2019-04-01T11:10:12.624Z,31.95
2019-04-01T11:11:12.647Z,31.57
2019-04-01T11:12:13.407Z,31.44
2019-04-01T11:13:12.590Z,31.13
2019-04-01T11:14:12.581Z,30.91
2019-04-01T11:15:15.541Z,30.70
2019-04-01T11:16:13.626Z,30.47
2019-04-01T11:17:12.560Z,30.32
2019-04-01T11:18:12.566Z,30.17
2019-04-01T11:19:12.564Z,30.02
2019-04-01T11:20:12.543Z,29.89
2019-04-01T11:21:12.559Z,29.78
2019-04-01T11:22:12.528Z,29.71
2019-04-01T11:23:12.533Z,29.58
2019-04-01T11:24:12.552Z,29.52
2019-04-01T11:25:12.572Z,29.28
2019-04-01T11:26:12.490Z,29.16
2019-04-01T11:27:12.508Z,28.92
2019-04-01T11:28:12.488Z,28.95
2019-04-01T11:29:12.557Z,28.86
2019-04-01T11:30:13.921Z,28.80
2019-04-01T11:31:13.466Z,28.59
2019-04-01T11:32:13.544Z,28.62
2019-04-01T11:33:13.606Z,28.52
2019-04-01T11:34:12.434Z,28.41
2019-04-01T11:35:12.449Z,28.44
2019-04-01T11:36:13.884Z,28.33
2019-04-01T11:37:12.456Z,28.27
2019-04-01T11:38:12.410Z,28.19
2019-04-01T11:39:13.426Z,28.09
2019-04-01T11:40:12.724Z,28.00
2019-04-01T11:41:12.444Z,27.99
2019-04-01T11:42:12.413Z,27.97
2019-04-01T11:43:12.405Z,27.87
2019-04-01T11:44:12.480Z,27.77
2019-04-01T11:45:12.407Z,27.85
2019-04-01T11:46:12.941Z,27.82
2019-04-01T11:47:13.380Z,27.72
2019-04-01T11:48:12.399Z,27.67
2019-04-01T11:49:12.404Z,27.59
2019-04-01T11:50:12.340Z,27.54
2019-04-01T11:51:12.478Z,27.43
2019-04-01T11:52:15.403Z,27.34
2019-04-01T11:53:12.325Z,27.27
2019-04-01T11:54:12.321Z,27.24
2019-04-01T11:55:12.333Z,27.14
2019-04-01T11:56:12.302Z,27.12
2019-04-01T11:57:12.297Z,27.14
2019-04-01T11:58:12.415Z,27.00
2019-04-01T11:59:12.283Z,27.00
2019-04-01T12:00:13.290Z,27.03
2019-04-01T12:01:13.265Z,26.95
2019-04-01T12:02:12.258Z,26.94
2019-04-01T12:03:12.247Z,26.97
2019-04-01T12:04:12.244Z,26.91
2019-04-01T12:05:12.336Z,26.85
2019-04-01T12:06:12.231Z,26.77
2019-04-01T12:07:12.220Z,26.75
2019-04-01T12:08:12.235Z,26.67
2019-04-01T12:09:12.216Z,26.70
2019-04-01T12:10:12.193Z,26.62
2019-04-01T12:11:12.225Z,26.69
2019-04-01T12:12:23.533Z,26.57
2019-04-01T12:13:14.206Z,26.63
2019-04-01T12:14:12.190Z,26.50
2019-04-01T12:15:12.749Z,26.52
2019-04-01T12:16:12.193Z,26.51
2019-04-01T12:17:12.164Z,26.51
2019-04-01T12:18:12.124Z,26.48
2019-04-01T12:19:12.206Z,26.45
2019-04-01T12:20:12.114Z,26.45
2019-04-01T12:21:12.244Z,26.43
2019-04-01T12:22:12.094Z,26.21
2019-04-01T12:23:12.091Z,26.26
2019-04-01T12:24:12.089Z,26.23
2019-04-01T12:25:12.095Z,26.18
2019-04-01T12:26:15.436Z,26.17
2019-04-01T12:27:13.128Z,26.21
2019-04-01T12:28:12.081Z,26.17
2019-04-01T12:29:12.586Z,26.06
2019-04-01T12:30:12.061Z,26.17
2019-04-01T12:31:13.029Z,26.12
2019-04-01T12:32:13.068Z,26.09
2019-04-01T12:33:12.065Z,26.02
2019-04-01T12:34:12.056Z,25.98
2019-04-01T12:35:12.105Z,25.97
2019-04-01T12:36:12.146Z,25.94
2019-04-01T12:37:12.071Z,25.95
2019-04-01T12:38:12.050Z,25.90
2019-04-01T12:39:12.041Z,25.83
2019-04-01T12:40:12.062Z,25.90
2019-04-01T12:41:12.064Z,25.87
2019-04-01T12:42:12.010Z,25.85
2019-04-01T12:43:12.027Z,25.80
2019-04-01T12:44:12.022Z,25.80
2019-04-01T12:45:11.988Z,25.76
2019-04-01T12:46:12.139Z,25.61
2019-04-01T12:47:12.149Z,25.67
2019-04-01T12:48:11.979Z,25.70
2019-04-01T12:49:11.979Z,25.64
2019-04-01T12:50:11.963Z,25.73
2019-04-01T12:51:11.943Z,25.65
2019-04-01T12:52:11.992Z,25.69